Time;durP1;ratioP1;P1;durP2;ratioP2;P2;SDS_P1;SDS_P2;PMS_P1;PMS_P2;Temp;Humidity;BMP_temperature;BMP_pressure;BME280_temperature;BME280_humidity;BME280_pressure;Samples;Min_cycle;Max_cycle;Signal;HPM_P1;HPM_P2
2022/04/05 00:01:41;;;;;;;148.15;62.03;;;2.30;99.90;;;;;;5074199;28;20047;-60
2022/04/05 00:04:07;;;;;;;158.73;66.85;;;2.20;99.90;;;;;;5074188;28;20029;-59
2022/04/05 00:06:34;;;;;;;153.02;63.42;;;2.20;99.90;;;;;;5074290;28;20040;-60
2022/04/05 00:09:00;;;;;;;142.32;61.15;;;2.20;99.90;;;;;;5074200;28;20491;-60
2022/04/05 00:11:26;;;;;;;147.35;62.22;;;2.20;99.90;;;;;;5063971;28;20118;-60
2022/04/05 00:13:51;;;;;;;156.82;64.38;;;2.20;99.90;;;;;;5053949;28;20033;-60
2022/04/05 00:16:17;;;;;;;148.48;61.78;;;2.10;99.90;;;;;;5055171;28;20053;-60
2022/04/05 00:18:43;;;;;;;139.95;60.67;;;2.10;99.90;;;;;;5058227;28;20128;-60
2022/04/05 00:21:10;;;;;;;119.00;52.33;;;2.00;99.90;;;;;;5058182;28;20025;-60
2022/04/05 00:23:36;;;;;;;128.27;56.20;;;1.90;99.90;;;;;;5058263;28;20043;-60
2022/04/05 00:26:02;;;;;;;114.72;52.65;;;1.80;99.90;;;;;;5076783;28;20032;-60
2022/04/05 00:28:28;;;;;;;122.55;52.53;;;1.70;99.90;;;;;;5078027;28;20060;-60
2022/04/05 00:30:54;;;;;;;105.82;48.03;;;1.70;99.90;;;;;;5077918;28;20029;-60
2022/04/05 00:33:20;;;;;;;113.30;53.60;;;1.60;99.90;;;;;;5077960;28;20393;-60
2022/04/05 00:35:46;;;;;;;121.78;52.95;;;1.50;99.90;;;;;;5078295;28;20032;-60
2022/04/05 00:38:14;;;;;;;113.05;51.80;;;1.70;99.90;;;;;;5077948;28;20028;-60
2022/04/05 00:40:40;;;;;;;110.38;50.63;;;1.80;99.90;;;;;;5077693;28;20401;-60
2022/04/05 00:43:06;;;;;;;127.75;56.45;;;1.90;99.90;;;;;;5077717;28;20024;-60
2022/04/05 00:45:35;;;;;;;135.63;57.35;;;1.90;99.90;;;;;;5077598;28;20556;-60
2022/04/05 00:48:03;;;;;;;112.10;52.35;;;1.90;99.90;;;;;;5077924;28;20025;-60
2022/04/05 00:50:36;;;;;;;104.20;50.20;;;1.90;99.90;;;;;;5077763;28;20028;-60
2022/04/05 00:53:05;;;;;;;101.50;48.35;;;1.90;99.90;;;;;;5077713;28;20104;-60
2022/04/05 00:55:32;;;;;;;95.50;45.55;;;1.80;99.90;;;;;;5077472;28;20270;-60
2022/04/05 00:58:01;;;;;;;113.72;50.83;;;1.80;99.90;;;;;;5077568;28;20064;-60
2022/04/05 01:00:27;;;;;;;96.28;46.33;;;1.80;99.90;;;;;;5077572;28;20504;-60
2022/04/05 01:02:55;;;;;;;93.97;44.85;;;1.70;99.90;;;;;;5077397;28;20064;-60
2022/04/05 01:05:23;;;;;;;94.15;43.67;;;1.60;99.90;;;;;;5077438;28;20075;-60
2022/04/05 01:07:51;;;;;;;88.97;44.03;;;1.60;99.90;;;;;;5077467;28;20031;-59
2022/04/05 01:10:17;;;;;;;101.05;46.65;;;1.70;99.90;;;;;;5076480;28;20227;-60
2022/04/05 01:12:43;;;;;;;98.63;47.35;;;1.60;99.90;;;;;;5057370;28;20048;-60
2022/04/05 01:15:09;;;;;;;96.95;47.25;;;1.50;99.90;;;;;;5056902;28;20425;-60
2022/04/05 01:17:35;;;;;;;98.65;46.33;;;1.50;99.90;;;;;;5090389;28;20039;-60
2022/04/05 01:20:02;;;;;;;94.15;46.95;;;1.50;99.90;;;;;;5097321;28;20457;-60
2022/04/05 01:22:28;;;;;;;98.90;47.55;;;1.50;99.90;;;;;;5097184;28;20024;-60
2022/04/05 01:24:54;;;;;;;92.45;46.35;;;1.60;99.90;;;;;;5097254;28;20381;-60
2022/04/05 01:27:20;;;;;;;109.97;50.30;;;1.60;99.90;;;;;;5096733;28;20028;-60
2022/04/05 01:29:50;;;;;;;114.90;50.22;;;1.60;99.90;;;;;;5097124;28;20043;-60
2022/04/05 01:32:16;;;;;;;100.10;47.08;;;1.50;99.90;;;;;;5097354;28;20028;-60
2022/04/05 01:34:41;;;;;;;104.18;47.88;;;1.50;99.90;;;;;;5097291;28;20087;-60
2022/04/05 01:37:10;;;;;;;95.93;45.65;;;1.50;99.90;;;;;;5096968;28;20061;-60
2022/04/05 01:39:38;;;;;;;82.75;42.13;;;1.40;99.90;;;;;;5097091;28;20028;-60
2022/04/05 01:42:22;;;;;;;85.90;41.05;;;1.40;99.90;;;;;;5097053;28;20419;-60
2022/04/05 01:44:48;;;;;;;78.57;37.25;;;1.30;99.90;;;;;;5097010;28;20038;-60
2022/04/05 01:47:16;;;;;;;73.47;37.28;;;1.20;99.90;;;;;;5096922;28;20115;-60
2022/04/05 01:49:45;;;;;;;72.82;37.45;;;1.20;99.90;;;;;;5096753;28;20039;-60
2022/04/05 01:52:11;;;;;;;72.75;35.88;;;1.10;99.90;;;;;;5096856;28;20188;-60
2022/04/05 01:54:39;;;;;;;81.80;40.50;;;1.10;99.90;;;;;;5096676;28;20065;-60
2022/04/05 01:57:05;;;;;;;76.75;40.22;;;1.00;99.90;;;;;;5096889;28;20499;-60
2022/04/05 01:59:34;;;;;;;104.50;50.35;;;1.00;99.90;;;;;;5096806;28;20052;-60
2022/04/05 02:02:05;;;;;;;94.13;47.72;;;1.10;99.90;;;;;;5096799;28;20063;-60
2022/04/05 02:04:31;;;;;;;87.63;43.45;;;1.20;99.90;;;;;;5095197;28;20100;-61
2022/04/05 02:06:57;;;;;;;98.25;47.15;;;1.30;99.90;;;;;;5096356;28;20050;-60
2022/04/05 02:09:23;;;;;;;93.82;45.92;;;1.30;99.90;;;;;;5096696;28;20130;-60
2022/04/05 02:11:50;;;;;;;85.15;43.63;;;1.40;99.90;;;;;;5096276;28;20027;-60
2022/04/05 02:14:34;;;;;;;81.65;39.53;;;1.40;99.90;;;;;;5096617;28;20031;-60
2022/04/05 02:17:06;;;;;;;73.10;38.10;;;1.40;99.90;;;;;;5078066;28;20048;-60
2022/04/05 02:19:34;;;;;;;72.28;35.70;;;1.40;99.90;;;;;;5077905;28;20028;-60
2022/04/05 02:22:02;;;;;;;69.50;35.08;;;1.30;99.90;;;;;;5078096;28;20032;-60
2022/04/05 02:24:29;;;;;;;63.95;32.70;;;1.30;99.90;;;;;;5078097;28;20035;-60
2022/04/05 02:26:55;;;;;;;64.88;33.92;;;1.20;99.90;;;;;;5078043;28;20420;-60
2022/04/05 02:29:23;;;;;;;60.17;33.15;;;1.20;99.90;;;;;;5077748;28;20039;-60
2022/04/05 02:31:55;;;;;;;65.63;34.42;;;1.20;99.90;;;;;;5077936;28;20024;-60
2022/04/05 02:34:21;;;;;;;68.72;35.30;;;1.10;99.90;;;;;;5095905;28;20024;-60
2022/04/05 02:36:54;;;;;;;64.45;33.45;;;1.20;99.90;;;;;;5077778;28;20197;-60
2022/04/05 02:39:20;;;;;;;64.97;33.45;;;1.20;99.90;;;;;;5076834;28;20028;-60
2022/04/05 02:41:51;;;;;;;67.97;35.00;;;1.10;99.90;;;;;;5077638;28;20032;-60
2022/04/05 02:44:19;;;;;;;66.55;34.00;;;1.00;99.90;;;;;;5077520;28;20067;-60
2022/04/05 02:46:46;;;;;;;65.35;32.17;;;1.10;99.90;;;;;;5077674;28;20028;-60
2022/04/05 02:49:13;;;;;;;64.03;32.83;;;1.00;99.90;;;;;;5077485;28;20482;-60
2022/04/05 02:51:41;;;;;;;66.25;33.47;;;1.10;99.90;;;;;;5077444;28;20077;-60
2022/04/05 02:54:15;;;;;;;75.60;36.58;;;1.20;99.90;;;;;;5077614;28;20020;-60
2022/04/05 02:56:41;;;;;;;75.70;36.97;;;1.20;99.90;;;;;;5077296;28;20028;-60
2022/04/05 02:59:09;;;;;;;70.50;34.38;;;1.20;99.90;;;;;;5077250;28;20607;-60
2022/04/05 03:01:35;;;;;;;73.13;35.38;;;1.20;99.90;;;;;;5076926;28;20115;-60
2022/04/05 03:04:08;;;;;;;67.10;33.78;;;1.20;99.90;;;;;;5077245;28;20043;-60
2022/04/05 03:06:34;;;;;;;72.80;34.47;;;1.20;99.90;;;;;;5077070;28;20114;-60
2022/04/05 03:09:01;;;;;;;67.70;34.85;;;1.10;99.90;;;;;;5077030;28;20038;-60
2022/04/05 03:11:29;;;;;;;67.72;34.28;;;1.10;99.90;;;;;;5076988;28;20024;-60
2022/04/05 03:13:56;;;;;;;67.72;34.60;;;1.00;99.90;;;;;;5111272;28;20373;-60
2022/04/05 03:16:22;;;;;;;64.32;32.58;;;1.00;99.90;;;;;;5095058;28;20215;-60
2022/04/05 03:18:52;;;;;;;65.07;32.50;;;1.00;99.90;;;;;;5076643;28;20487;-60
2022/04/05 03:21:19;;;;;;;60.22;31.08;;;1.00;99.90;;;;;;5077105;28;20492;-60
2022/04/05 03:23:45;;;;;;;61.20;30.05;;;0.90;99.90;;;;;;5076593;28;20392;-60
2022/04/05 03:26:11;;;;;;;58.22;30.73;;;0.80;99.90;;;;;;5095037;28;20039;-60
2022/04/05 03:28:37;;;;;;;62.33;30.00;;;0.80;99.90;;;;;;5076792;28;20035;-60
2022/04/05 03:31:04;;;;;;;56.38;29.85;;;0.80;99.90;;;;;;5076600;28;20032;-61
2022/04/05 03:33:31;;;;;;;62.40;29.85;;;0.80;99.90;;;;;;5076740;28;20036;-60
2022/04/05 03:35:59;;;;;;;69.68;33.45;;;0.90;99.90;;;;;;5076732;28;20055;-60
2022/04/05 03:38:28;;;;;;;71.30;34.03;;;0.90;99.90;;;;;;5076682;28;20028;-60
2022/04/05 03:40:54;;;;;;;72.90;36.45;;;0.90;99.90;;;;;;5076893;28;20028;-60
2022/04/05 03:43:21;;;;;;;74.80;37.15;;;1.00;99.90;;;;;;5076535;28;20024;-60
2022/04/05 03:45:53;;;;;;;74.43;37.45;;;1.00;99.90;;;;;;5076527;28;20032;-60
2022/04/05 03:48:20;;;;;;;73.03;37.83;;;1.00;99.90;;;;;;5076617;28;20378;-60
2022/04/05 03:50:46;;;;;;;71.15;35.10;;;1.00;99.90;;;;;;5076311;28;20075;-60
2022/04/05 03:53:13;;;;;;;62.63;33.10;;;0.90;99.90;;;;;;5076573;28;20358;-60
2022/04/05 03:55:39;;;;;;;67.90;33.03;;;0.80;99.90;;;;;;5076363;28;20028;-60
2022/04/05 03:58:12;;;;;;;53.88;27.83;;;0.70;99.90;;;;;;5076348;28;20082;-60
2022/04/05 04:00:39;;;;;;;61.67;31.27;;;0.70;99.90;;;;;;5076327;28;20024;-60
2022/04/05 04:03:16;;;;;;;86.00;39.83;;;0.70;99.90;;;;;;5076492;28;20496;-60
2022/04/05 04:05:43;;;;;;;115.97;50.83;;;0.60;99.90;;;;;;5076374;28;20103;-60
2022/04/05 04:08:11;;;;;;;130.05;52.80;;;0.60;99.90;;;;;;5076205;28;20089;-60
2022/04/05 04:10:37;;;;;;;92.57;45.25;;;0.60;99.90;;;;;;5076272;28;20020;-60
2022/04/05 04:13:05;;;;;;;84.70;40.30;;;0.60;99.90;;;;;;5076188;28;20024;-60
2022/04/05 04:15:36;;;;;;;76.05;40.33;;;0.70;99.90;;;;;;5076119;28;20153;-60
2022/04/05 04:18:04;;;;;;;82.55;39.58;;;0.60;99.90;;;;;;5076416;28;20032;-60
2022/04/05 04:20:32;;;;;;;78.72;38.60;;;0.60;99.90;;;;;;5076074;28;20020;-60
2022/04/05 04:22:59;;;;;;;80.15;38.78;;;0.60;99.90;;;;;;5076123;28;20028;-60
2022/04/05 04:25:25;;;;;;;100.38;38.67;;;0.60;99.90;;;;;;5076213;28;20024;-60
2022/04/05 04:27:53;;;;;;;90.70;39.40;;;0.60;99.90;;;;;;5076225;28;20025;-60
2022/04/05 04:30:19;;;;;;;75.80;36.28;;;0.60;99.90;;;;;;5093922;28;20024;-60
2022/04/05 04:32:45;;;;;;;103.07;44.53;;;0.60;99.90;;;;;;5094412;28;20376;-60
2022/04/05 04:35:12;;;;;;;121.45;52.78;;;0.60;99.90;;;;;;5094148;28;20054;-60
2022/04/05 04:37:38;;;;;;;161.40;57.65;;;0.50;99.90;;;;;;5094116;28;20026;-60
2022/04/05 04:40:04;;;;;;;86.50;36.63;;;0.60;99.90;;;;;;5094177;28;20035;-61
2022/04/05 04:42:32;;;;;;;91.28;39.00;;;0.70;99.90;;;;;;5093908;28;20028;-60
2022/04/05 04:44:58;;;;;;;103.53;40.00;;;0.70;99.90;;;;;;5094106;28;20101;-60
2022/04/05 04:47:24;;;;;;;77.68;35.17;;;0.70;99.90;;;;;;5094087;28;20031;-60
2022/04/05 04:49:50;;;;;;;89.45;37.05;;;0.70;99.90;;;;;;5093920;28;20032;-60
2022/04/05 04:52:16;;;;;;;80.72;36.92;;;0.70;99.90;;;;;;5094122;28;20028;-61
2022/04/05 04:54:42;;;;;;;112.25;42.25;;;0.90;99.90;;;;;;5094445;28;20095;-60
2022/04/05 04:57:08;;;;;;;115.60;43.42;;;1.00;99.90;;;;;;5093952;28;20031;-61
2022/04/05 04:59:34;;;;;;;127.00;49.72;;;1.10;99.90;;;;;;5093990;28;20039;-61
2022/04/05 05:02:00;;;;;;;122.45;48.45;;;1.10;99.90;;;;;;5094699;28;20023;-61
2022/04/05 05:04:26;;;;;;;109.47;43.78;;;1.20;99.90;;;;;;5097666;28;20034;-60
2022/04/05 05:06:53;;;;;;;86.25;40.67;;;1.30;99.90;;;;;;5097870;28;20020;-61
2022/04/05 05:09:20;;;;;;;87.80;41.63;;;1.40;99.90;;;;;;5097837;28;20020;-61
2022/04/05 05:11:46;;;;;;;114.93;49.05;;;1.60;99.90;;;;;;5097422;28;20448;-61
2022/04/05 05:14:12;;;;;;;107.07;44.55;;;1.70;99.90;;;;;;5097456;28;20103;-61
2022/04/05 05:16:38;;;;;;;97.72;44.42;;;1.80;99.90;;;;;;5097178;28;20492;-62
2022/04/05 05:19:05;;;;;;;107.85;45.58;;;1.90;99.90;;;;;;5092760;28;20051;-61
2022/04/05 05:21:31;;;;;;;105.20;46.22;;;2.10;99.90;;;;;;5092809;28;20038;-61
2022/04/05 05:23:59;;;;;;;108.25;47.75;;;2.30;99.90;;;;;;5096327;28;20090;-52
2022/04/05 05:26:25;;;;;;;122.25;53.67;;;2.50;99.90;;;;;;5094464;28;20020;-52
2022/04/05 05:28:51;;;;;;;107.63;50.67;;;2.60;99.90;;;;;;5089873;28;20465;-52
2022/04/05 05:31:17;;;;;;;107.13;54.08;;;2.70;99.90;;;;;;5096949;28;20023;-51
2022/04/05 05:33:43;;;;;;;118.18;51.30;;;2.90;99.90;;;;;;5096735;28;20514;-52
2022/04/05 05:36:09;;;;;;;110.10;48.53;;;3.10;99.90;;;;;;5096415;28;20024;-51
2022/04/05 05:38:35;;;;;;;102.15;47.90;;;3.40;99.90;;;;;;5096821;28;20119;-52
2022/04/05 05:41:01;;;;;;;111.13;51.03;;;3.60;99.90;;;;;;5086813;28;20024;-52
2022/04/05 05:43:27;;;;;;;111.00;50.03;;;3.70;99.90;;;;;;5082159;28;20619;-52
2022/04/05 05:45:53;;;;;;;101.68;47.53;;;3.80;99.90;;;;;;5084657;28;20052;-62
2022/04/05 05:48:20;;;;;;;111.05;50.72;;;3.90;99.90;;;;;;5089872;28;20040;-62
2022/04/05 05:50:46;;;;;;;115.63;53.13;;;4.00;99.90;;;;;;5096683;28;20028;-61
2022/04/05 05:53:13;;;;;;;142.07;66.35;;;4.10;99.90;;;;;;5091675;28;20024;-62
2022/04/05 05:55:40;;;;;;;156.43;73.68;;;4.20;99.90;;;;;;5091136;28;20012;-62
2022/04/05 05:58:06;;;;;;;179.20;76.25;;;4.30;99.90;;;;;;5116440;28;20488;-62
2022/04/05 06:00:32;;;;;;;134.52;63.10;;;4.40;99.90;;;;;;5103500;28;20020;-62
2022/04/05 06:03:01;;;;;;;143.63;68.78;;;4.60;99.90;;;;;;5089409;28;20051;-62
2022/04/05 06:05:28;;;;;;;136.95;64.07;;;4.70;99.90;;;;;;5076009;28;20040;-62
2022/04/05 06:07:55;;;;;;;137.60;64.50;;;4.80;99.90;;;;;;5075787;28;20028;-63
2022/04/05 06:10:22;;;;;;;152.60;67.20;;;5.10;99.90;;;;;;5080926;28;20309;-62
2022/04/05 06:12:50;;;;;;;135.02;62.15;;;5.30;99.90;;;;;;5081752;28;20060;-62
2022/04/05 06:15:17;;;;;;;124.47;59.05;;;5.40;99.90;;;;;;5079947;28;20394;-62
2022/04/05 06:17:46;;;;;;;118.80;55.42;;;5.80;99.90;;;;;;5058871;28;20387;-62
2022/04/05 06:20:14;;;;;;;119.20;50.67;;;6.10;99.90;;;;;;5065594;28;20478;-63
2022/04/05 06:22:53;;;;;;;96.05;49.35;;;6.40;99.90;;;;;;5064499;28;20032;-63
2022/04/05 06:25:31;;;;;;;98.10;43.83;;;6.70;99.90;;;;;;5065477;28;20474;-62
2022/04/05 06:28:03;;;;;;;93.72;40.65;;;7.00;99.90;;;;;;5069188;28;20547;-62
2022/04/05 06:30:32;;;;;;;82.47;40.22;;;7.40;99.90;;;;;;5064998;28;20108;-62
2022/04/05 06:33:13;;;;;;;104.55;48.80;;;7.70;99.90;;;;;;5067029;28;20106;-62
2022/04/05 06:35:44;;;;;;;98.60;47.25;;;7.80;99.90;;;;;;5075255;28;20025;-62
2022/04/05 06:38:11;;;;;;;96.22;45.42;;;8.10;99.90;;;;;;5068553;28;20501;-63
2022/04/05 06:40:38;;;;;;;104.88;48.80;;;8.10;99.90;;;;;;5063311;28;20493;-62
2022/04/05 06:43:04;;;;;;;88.65;44.72;;;8.40;99.90;;;;;;5059012;28;20028;-63
2022/04/05 06:45:30;;;;;;;106.53;51.50;;;8.70;99.90;;;;;;5063205;28;20021;-62
2022/04/05 06:47:56;;;;;;;116.13;52.30;;;9.10;99.90;;;;;;5065685;28;20047;-62
2022/04/05 06:50:25;;;;;;;99.82;51.65;;;9.30;99.90;;;;;;5064777;28;20036;-62
2022/04/05 06:52:53;;;;;;;109.90;49.97;;;9.50;99.90;;;;;;5065542;28;20024;-62
2022/04/05 06:55:19;;;;;;;110.95;48.22;;;9.60;99.90;;;;;;5055867;28;20488;-62
2022/04/05 06:57:45;;;;;;;95.22;43.08;;;9.80;99.90;;;;;;5055643;28;20025;-62
2022/04/05 07:00:13;;;;;;;95.60;42.63;;;10.10;99.90;;;;;;5055634;28;20033;-63
2022/04/05 07:02:40;;;;;;;86.90;39.65;;;10.30;99.90;;;;;;5058288;28;20043;-63
2022/04/05 07:05:07;;;;;;;68.60;32.38;;;10.80;99.90;;;;;;5060934;28;20168;-63
2022/04/05 07:07:33;;;;;;;83.85;38.28;;;11.00;99.90;;;;;;5063999;28;20087;-62
2022/04/05 07:09:59;;;;;;;68.95;34.78;;;11.30;98.00;;;;;;5073733;28;20025;-62
2022/04/05 07:12:25;;;;;;;82.40;36.65;;;11.60;97.00;;;;;;5075170;28;20031;-63
2022/04/05 07:14:51;;;;;;;67.10;33.65;;;11.80;97.40;;;;;;5075151;28;20474;-63
2022/04/05 07:17:18;;;;;;;55.65;27.42;;;12.00;94.50;;;;;;5069060;28;20036;-63
2022/04/05 07:19:44;;;;;;;45.67;23.30;;;12.40;94.10;;;;;;5077036;28;20020;-63
2022/04/05 07:22:11;;;;;;;47.22;23.63;;;12.20;91.10;;;;;;5073736;28;20097;-63
2022/04/05 07:24:37;;;;;;;44.90;24.30;;;12.40;94.10;;;;;;5065946;28;20027;-63
2022/04/05 07:27:03;;;;;;;54.70;24.00;;;12.70;92.30;;;;;;5062594;28;20462;-63
2022/04/05 07:29:29;;;;;;;53.72;24.70;;;13.10;91.00;;;;;;5063386;28;20061;-63
2022/04/05 07:31:55;;;;;;;48.33;24.58;;;13.20;88.00;;;;;;5079236;28;20392;-64
2022/04/05 07:34:21;;;;;;;38.08;21.90;;;13.30;91.00;;;;;;5075472;28;20032;-63
2022/04/05 07:36:47;;;;;;;33.85;18.00;;;13.60;87.70;;;;;;5079797;28;20088;-63
2022/04/05 07:39:13;;;;;;;42.03;21.73;;;14.00;75.20;;;;;;5094022;28;20028;-63
2022/04/05 07:41:40;;;;;;;42.10;21.77;;;14.40;78.70;;;;;;5086668;28;20035;-63
2022/04/05 07:44:06;;;;;;;39.15;20.48;;;14.30;76.70;;;;;;5071831;28;20032;-64
2022/04/05 07:46:32;;;;;;;35.92;18.73;;;14.50;75.10;;;;;;5060979;28;20429;-63
2022/04/05 07:48:57;;;;;;;33.17;17.48;;;14.40;73.60;;;;;;5067343;28;20033;-64
2022/04/05 07:51:23;;;;;;;28.85;15.77;;;14.60;70.60;;;;;;5068450;28;20039;-64
2022/04/05 07:53:49;;;;;;;52.13;21.33;;;14.90;69.70;;;;;;5073151;28;20017;-64
2022/04/05 07:56:15;;;;;;;31.55;16.88;;;15.00;65.80;;;;;;5068114;28;20359;-64
2022/04/05 07:58:44;;;;;;;28.50;15.68;;;15.30;58.90;;;;;;5073361;28;20037;-63
2022/04/05 08:01:11;;;;;;;25.42;13.85;;;15.50;56.40;;;;;;5074803;28;20021;-64
2022/04/05 08:03:38;;;;;;;29.52;15.98;;;15.10;66.80;;;;;;5074797;28;20036;-64
2022/04/05 08:06:05;;;;;;;24.95;12.95;;;15.40;58.20;;;;;;5074935;28;20028;-64
2022/04/05 08:08:31;;;;;;;35.47;14.93;;;15.60;55.40;;;;;;5074391;28;20033;-64
2022/04/05 08:10:58;;;;;;;28.58;12.88;;;15.50;56.40;;;;;;5072518;28;20029;-64
2022/04/05 08:13:26;;;;;;;24.60;14.43;;;15.80;55.50;;;;;;5067637;28;20476;-64
2022/04/05 08:15:53;;;;;;;29.20;13.63;;;16.00;56.90;;;;;;5072049;28;20128;-64
2022/04/05 08:18:20;;;;;;;30.52;15.75;;;16.30;51.00;;;;;;5054471;28;20075;-63
2022/04/05 08:20:46;;;;;;;35.78;16.23;;;16.20;51.40;;;;;;5065494;28;20047;-64
2022/04/05 08:23:12;;;;;;;35.17;14.25;;;16.50;54.80;;;;;;5082715;28;20024;-64
2022/04/05 08:25:38;;;;;;;34.63;12.55;;;16.30;47.90;;;;;;5065487;28;20024;-64
2022/04/05 08:28:05;;;;;;;24.80;11.10;;;16.50;48.10;;;;;;5054553;28;20021;-64
2022/04/05 08:30:31;;;;;;;32.33;11.05;;;16.90;47.40;;;;;;5069919;28;20024;-64
2022/04/05 08:32:58;;;;;;;21.02;10.15;;;16.90;46.00;;;;;;5073812;28;20107;-64
2022/04/05 08:35:25;;;;;;;20.45;10.15;;;17.10;43.70;;;;;;5086697;28;20482;-64
2022/04/05 08:37:54;;;;;;;17.48;8.35;;;16.70;46.70;;;;;;5090425;28;20017;-64
2022/04/05 08:40:23;;;;;;;13.27;6.75;;;17.30;46.30;;;;;;5099518;28;20024;-64
2022/04/05 08:42:51;;;;;;;17.70;6.70;;;17.00;41.80;;;;;;5097568;28;20504;-64
2022/04/05 08:45:19;;;;;;;12.88;5.70;;;16.60;43.30;;;;;;5088959;28;20067;-64
2022/04/05 08:47:52;;;;;;;15.65;8.20;;;16.40;44.70;;;;;;5080887;28;20107;-64
2022/04/05 08:50:38;;;;;;;12.38;6.78;;;16.80;45.10;;;;;;5087529;28;20016;-65
2022/04/05 08:53:04;;;;;;;6.25;3.10;;;16.70;42.30;;;;;;5093399;28;20020;-65
2022/04/05 08:55:30;;;;;;;11.82;6.45;;;16.90;40.20;;;;;;5098504;28;20024;-64
2022/04/05 08:57:57;;;;;;;11.75;4.85;;;17.10;41.70;;;;;;5098363;28;20024;-65
2022/04/05 09:00:23;;;;;;;8.68;3.65;;;17.30;40.60;;;;;;5098330;28;20032;-65
2022/04/05 09:03:00;;;;;;;12.73;4.93;;;17.40;38.30;;;;;;5097188;28;20035;-65
2022/04/05 09:05:35;;;;;;;12.80;5.25;;;17.90;38.50;;;;;;5096549;28;20708;-65
2022/04/05 09:08:16;;;;;;;11.82;6.03;;;18.00;38.00;;;;;;5098196;28;20031;-64
2022/04/05 09:10:48;;;;;;;9.18;3.55;;;17.70;38.70;;;;;;5096182;28;20024;-65
2022/04/05 09:13:17;;;;;;;4.90;2.70;;;17.80;38.60;;;;;;5098250;28;20535;-65
2022/04/05 09:15:48;;;;;;;13.45;4.28;;;18.40;37.60;;;;;;5097985;28;20085;-65
2022/04/05 09:18:36;;;;;;;13.35;4.18;;;18.70;35.10;;;;;;5095257;28;20359;-65
2022/04/05 09:21:07;;;;;;;13.70;4.47;;;18.30;35.60;;;;;;5090878;28;20073;-65
2022/04/05 09:23:43;;;;;;;;;;;17.80;35.90;;;;;;5078547;28;20549;-65
2022/04/05 09:26:15;;;;;;;16.90;5.85;;;18.80;34.60;;;;;;5105497;28;20421;-65
2022/04/05 09:28:49;;;;;;;10.70;4.75;;;18.70;34.30;;;;;;5090968;28;20381;-65
2022/04/05 09:31:21;;;;;;;12.35;4.55;;;19.50;35.20;;;;;;5067054;28;20035;-65
2022/04/05 09:34:05;;;;;;;12.80;5.05;;;18.70;33.00;;;;;;5089523;28;20583;-65
2022/04/05 09:36:37;;;;;;;13.05;5.32;;;18.50;35.60;;;;;;5086363;28;20435;-65
2022/04/05 09:39:24;;;;;;;7.55;4.47;;;18.60;36.00;;;;;;5092966;28;20078;-65
2022/04/05 09:41:56;;;;;;;7.10;4.50;;;19.50;36.50;;;;;;5083396;28;20028;-65
2022/04/05 09:44:31;;;;;;;9.20;5.05;;;20.20;34.80;;;;;;5095970;28;20039;-65
2022/04/05 09:47:21;;;;;;;11.85;6.88;;;20.80;32.70;;;;;;5078177;28;20071;-65
2022/04/05 09:49:50;;;;;;;10.15;4.72;;;20.90;31.60;;;;;;5088824;28;20024;-65
2022/04/05 09:52:27;;;;;;;11.45;5.45;;;20.20;30.70;;;;;;5079917;28;20083;-65
2022/04/05 09:54:54;;;;;;;11.90;5.00;;;19.90;32.30;;;;;;5091736;28;20581;-65
2022/04/05 09:57:31;;;;;;;14.98;4.97;;;20.10;31.80;;;;;;5084107;28;20089;-65
2022/04/05 10:00:14;;;;;;;10.52;4.20;;;20.60;32.60;;;;;;5091430;28;20043;-65
2022/04/05 10:03:00;;;;;;;8.20;4.78;;;20.70;32.10;;;;;;5092261;28;20085;-65
2022/04/05 10:05:26;;;;;;;15.93;5.32;;;20.00;30.80;;;;;;5087828;28;20028;-65
2022/04/05 10:07:52;;;;;;;7.30;3.97;;;19.90;32.60;;;;;;5079109;28;20030;-65
2022/04/05 10:10:19;;;;;;;11.98;4.68;;;20.10;32.40;;;;;;5096143;28;20027;-65
2022/04/05 10:12:47;;;;;;;6.60;3.30;;;20.90;31.40;;;;;;5093507;28;20111;-65
2022/04/05 10:15:18;;;;;;;9.75;3.70;;;21.00;32.40;;;;;;5075995;28;20041;-65
2022/04/05 10:17:53;;;;;;;11.45;3.40;;;20.90;30.10;;;;;;5075856;28;20081;-65
2022/04/05 10:20:19;;;;;;;7.53;2.55;;;20.90;30.90;;;;;;5088409;28;20107;-63
2022/04/05 10:22:53;;;;;;;2.97;1.80;;;20.50;30.90;;;;;;5096310;28;20030;-63
2022/04/05 10:25:21;;;;;;;3.92;2.13;;;20.70;30.20;;;;;;5096165;28;20032;-63
2022/04/05 10:27:48;;;;;;;15.48;3.75;;;21.10;30.10;;;;;;5096039;28;20028;-63
2022/04/05 10:30:41;;;;;;;5.22;2.10;;;20.90;29.20;;;;;;5095848;28;20428;-63
2022/04/05 10:33:24;;;;;;;6.63;2.70;;;20.40;28.60;;;;;;5081927;28;20116;-65
2022/04/05 10:35:55;;;;;;;9.77;3.17;;;19.80;29.30;;;;;;5087965;28;20099;-63
2022/04/05 10:38:21;;;;;;;6.15;2.30;;;20.30;29.80;;;;;;5087082;28;20433;-63
2022/04/05 10:41:21;;;;;;;4.72;2.08;;;20.90;29.70;;;;;;5088861;28;20119;-63
2022/04/05 10:44:16;;;;;;;5.80;2.42;;;20.70;29.80;;;;;;5106768;28;20046;-63
2022/04/05 10:46:50;;;;;;;6.65;2.28;;;20.70;30.40;;;;;;5082849;28;20032;-63
2022/04/05 10:49:34;;;;;;;4.72;2.53;;;21.60;31.00;;;;;;5088619;28;20059;-63
2022/04/05 10:52:21;;;;;;;8.50;2.72;;;21.80;27.10;;;;;;5093188;28;20028;-63
2022/04/05 10:54:49;;;;;;;7.60;2.70;;;21.80;28.70;;;;;;5095096;28;20107;-63
2022/04/05 10:57:16;;;;;;;7.85;3.42;;;22.70;28.10;;;;;;5095547;28;20020;-63
2022/04/05 11:00:05;;;;;;;6.38;2.17;;;22.80;27.60;;;;;;5087050;28;20032;-63
2022/04/05 11:02:35;;;;;;;6.22;1.95;;;22.50;27.20;;;;;;5092884;28;20058;-63
2022/04/05 11:05:24;;;;;;;5.28;2.28;;;22.10;27.00;;;;;;5097901;28;20028;-52
2022/04/05 11:08:00;;;;;;;7.35;2.33;;;22.00;27.60;;;;;;5088644;28;20043;-52
2022/04/05 11:10:37;;;;;;;6.32;2.13;;;21.50;26.90;;;;;;5095028;28;20028;-52
2022/04/05 11:13:03;;;;;;;4.82;2.08;;;20.60;26.80;;;;;;5094939;28;20073;-52
2022/04/05 11:15:50;;;;;;;5.95;2.13;;;20.70;27.30;;;;;;5095254;28;20044;-52
2022/04/05 11:18:21;;;;;;;4.72;1.83;;;21.20;28.70;;;;;;5074682;28;20032;-52
2022/04/05 11:20:51;;;;;;;9.32;2.53;;;22.20;28.10;;;;;;5090986;28;20080;-52
2022/04/05 11:23:19;;;;;;;6.50;1.90;;;22.20;26.80;;;;;;5087723;28;20105;-52
2022/04/05 11:25:46;;;;;;;8.63;2.10;;;22.40;27.60;;;;;;5085116;28;20035;-53
2022/04/05 11:28:14;;;;;;;7.47;2.53;;;22.70;27.20;;;;;;5074582;28;20048;-53
2022/04/05 11:30:58;;;;;;;4.20;1.77;;;22.60;27.20;;;;;;5074543;28;20119;-53
2022/04/05 11:33:29;;;;;;;5.10;2.10;;;22.00;26.80;;;;;;5074660;28;20017;-53
2022/04/05 11:36:00;;;;;;;4.50;2.25;;;22.20;26.00;;;;;;5078001;28;20016;-53
2022/04/05 11:38:39;;;;;;;4.43;2.40;;;22.30;25.00;;;;;;5094611;28;20027;-53
2022/04/05 11:41:18;;;;;;;7.80;3.22;;;21.80;25.50;;;;;;5094422;28;20016;-53
2022/04/05 11:43:46;;;;;;;9.13;3.28;;;21.30;26.50;;;;;;5086017;28;20020;-53
2022/04/05 11:46:28;;;;;;;5.90;2.55;;;21.60;27.40;;;;;;5086678;28;20525;-53
2022/04/05 11:49:05;;;;;;;7.63;2.72;;;22.40;25.60;;;;;;5090052;28;20124;-53
2022/04/05 11:51:36;;;;;;;9.57;3.65;;;22.90;25.80;;;;;;5082718;28;20351;-53
2022/04/05 11:54:08;;;;;;;7.93;3.72;;;23.20;25.30;;;;;;5094031;28;20106;-53
2022/04/05 11:56:35;;;;;;;10.38;3.72;;;23.00;25.30;;;;;;5087516;28;20027;-53
2022/04/05 11:59:03;;;;;;;8.10;2.85;;;22.50;25.50;;;;;;5084081;28;20481;-53
2022/04/05 12:01:36;;;;;;;6.50;2.95;;;22.10;25.50;;;;;;5091323;28;20024;-54
2022/04/05 12:04:10;;;;;;;14.80;5.75;;;21.70;26.30;;;;;;5093161;28;20032;-52
2022/04/05 12:06:42;;;;;;;7.40;3.10;;;22.10;26.10;;;;;;5108978;28;20724;-52
2022/04/05 12:09:13;;;;;;;7.22;3.10;;;22.70;26.10;;;;;;5098063;28;20043;-52
2022/04/05 12:11:41;;;;;;;9.02;3.80;;;22.50;25.30;;;;;;5082217;28;20024;-52
2022/04/05 12:14:09;;;;;;;6.10;2.92;;;22.00;24.80;;;;;;5082056;28;20029;-52
2022/04/05 12:16:56;;;;;;;11.57;3.47;;;22.20;26.10;;;;;;5100508;28;20048;-52
2022/04/05 12:19:37;;;;;;;5.28;2.47;;;22.20;26.10;;;;;;5105060;28;20113;-52
2022/04/05 12:22:06;;;;;;;;;;;22.00;24.50;;;;;;5088948;28;20036;-52
2022/04/05 12:24:33;;;;;;;10.38;3.33;;;22.00;24.40;;;;;;5095149;28;20411;-52
2022/04/05 12:27:03;;;;;;;15.68;6.45;;;21.70;24.60;;;;;;5093829;28;20530;-52
2022/04/05 12:29:39;;;;;;;14.20;4.25;;;22.10;25.60;;;;;;5095258;28;20032;-52
2022/04/05 12:32:09;;;;;;;5.65;2.80;;;22.50;24.90;;;;;;5077004;28;20041;-52
2022/04/05 12:34:35;;;;;;;10.32;2.50;;;22.60;25.70;;;;;;5102487;28;20030;-52
2022/04/05 12:37:06;;;;;;;8.18;3.10;;;22.70;25.40;;;;;;5098701;28;20032;-52
2022/04/05 12:39:40;;;;;;;7.50;3.08;;;22.20;24.30;;;;;;5090242;28;20029;-52
2022/04/05 12:42:08;;;;;;;3.88;2.22;;;22.30;24.00;;;;;;5091480;28;20062;-52
2022/04/05 12:44:37;;;;;;;16.20;4.28;;;22.70;24.40;;;;;;5086456;28;20039;-52
2022/04/05 12:47:12;;;;;;;12.10;3.47;;;23.50;25.00;;;;;;5080022;28;20024;-52